Wetterdaten: Woche 29.07.13 - 04.08.13 (KW31)
Datum Zeit Temp. A. Feuchte A. Luftdruck Regen Wind Richtung Taupunkt Windchill Windben
29.07.2013 00:00 29,3 C 60 % 1009,1 hPa 0,0 l/m 3,7 km/h N 20,6 C 29,3 C 10,5 km/h
29.07.2013 01:00 27,6 C 65 % 1008,8 hPa 0,0 l/m 0,2 km/h N 20,3 C 27,6 C 2,4 km/h
29.07.2013 02:00 25,9 C 69 % 1008,6 hPa 0,0 l/m 0,0 km/h N 19,7 C 25,9 C 1,2 km/h
29.07.2013 03:00 24,8 C 72 % 1009,5 hPa 0,0 l/m 1,7 km/h N 19,4 C 24,8 C 10,5 km/h
29.07.2013 04:00 25,5 C 66 % 1009,5 hPa 0,0 l/m 4,1 km/h N 18,6 C 25,5 C 14,5 km/h
29.07.2013 05:00 24,9 C 67 % 1009,8 hPa 0,0 l/m 5,4 km/h N 18,3 C 24,7 C 20,1 km/h
29.07.2013 06:00 24,5 C 67 % 1010,3 hPa 0,0 l/m 8,4 km/h N 17,9 C 24,0 C 21,7 km/h
29.07.2013 07:00 25,1 C 66 % 1010,5 hPa 0,0 l/m 2,5 km/h N 18,1 C 25,1 C 11,3 km/h
29.07.2013 08:00 26,2 C 62 % 1010,9 hPa 0,0 l/m 6,3 km/h N 18,3 C 25,9 C 18,9 km/h
29.07.2013 09:00 26,9 C 59 % 1011,3 hPa 0,0 l/m 10,4 km/h N 18,2 C 26,1 C 26,1 km/h
29.07.2013 10:00 27,3 C 59 % 1011,7 hPa 0,0 l/m 9,1 km/h N 18,5 C 26,9 C 29,8 km/h
29.07.2013 11:00 28,2 C 56 % 1011,8 hPa 0,0 l/m 7,0 km/h N 18,7 C 28,0 C 25,3 km/h
29.07.2013 12:00 28,5 C 57 % 1011,8 hPa 0,0 l/m 9,6 km/h N 19,0 C 28,0 C 23,7 km/h
29.07.2013 13:00 29,3 C 57 % 1011,3 hPa 0,0 l/m 7,2 km/h N 20,0 C 29,3 C 18,5 km/h
29.07.2013 14:00 30,1 C 55 % 1010,2 hPa 0,0 l/m 4,8 km/h N 20,2 C 30,1 C 15,7 km/h
29.07.2013 15:00 31,5 C 51 % 1009,0 hPa 0,0 l/m 1,7 km/h N 19,9 C 31,5 C 8,1 km/h
29.07.2013 16:00 32,0 C 49 % 1007,8 hPa 0,0 l/m 2,3 km/h N 20,0 C 32,0 C 10,9 km/h
29.07.2013 17:00 32,2 C 49 % 1007,0 hPa 0,0 l/m 4,8 km/h N 20,0 C 32,1 C 16,9 km/h
29.07.2013 18:00 31,7 C 50 % 1006,2 hPa 0,0 l/m 4,9 km/h N 19,9 C 31,7 C 15,7 km/h
29.07.2013 19:00 30,9 C 50 % 1006,4 hPa 0,0 l/m 4,5 km/h N 19,1 C 30,9 C 16,9 km/h
29.07.2013 20:00 26,8 C 63 % 1007,7 hPa 0,0 l/m 1,6 km/h N 19,2 C 26,8 C 7,6 km/h
29.07.2013 21:00 25,0 C 70 % 1008,7 hPa 0,0 l/m 6,8 km/h N 19,1 C 24,5 C 21,7 km/h
29.07.2013 22:00 24,2 C 71 % 1010,2 hPa 0,0 l/m 11,1 km/h N 18,5 C 23,2 C 31,0 km/h
29.07.2013 23:00 23,5 C 73 % 1011,2 hPa 0,0 l/m 10,7 km/h N 18,3 C 22,5 C 32,2 km/h
30.07.2013 00:00 21,2 C 70 % 1012,6 hPa 0,0 l/m 18,4 km/h N 15,4 C 18,1 C 44,3 km/h
30.07.2013 01:00 20,4 C 71 % 1013,7 hPa 0,0 l/m 15,5 km/h N 14,9 C 17,6 C 45,5 km/h
30.07.2013 02:00 19,6 C 71 % 1013,5 hPa 0,0 l/m 16,3 km/h N 14,2 C 16,5 C 42,3 km/h
30.07.2013 03:00 19,4 C 71 % 1013,9 hPa 0,0 l/m 15,7 km/h N 14,0 C 16,4 C 41,0 km/h
30.07.2013 04:00 19,3 C 70 % 1014,3 hPa 0,0 l/m 12,0 km/h N 13,7 C 17,3 C 35,0 km/h
30.07.2013 05:00 19,1 C 71 % 1014,7 hPa 0,0 l/m 12,3 km/h N 13,6 C 16,9 C 30,6 km/h
30.07.2013 06:00 18,8 C 71 % 1015,2 hPa 0,0 l/m 15,0 km/h N 13,5 C 15,9 C 38,6 km/h
30.07.2013 07:00 19,1 C 71 % 1015,9 hPa 0,0 l/m 10,2 km/h N 13,8 C 17,6 C 29,4 km/h
30.07.2013 08:00 20,5 C 67 % 1016,2 hPa 0,0 l/m 13,1 km/h N 14,2 C 18,3 C 31,7 km/h
30.07.2013 09:00 20,5 C 67 % 1017,1 hPa 0,0 l/m 10,0 km/h N 14,1 C 19,2 C 27,9 km/h
30.07.2013 10:00 20,6 C 68 % 1017,4 hPa 0,0 l/m 11,8 km/h N 14,4 C 18,8 C 29,0 km/h
30.07.2013 11:00 22,5 C 63 % 1017,4 hPa 0,0 l/m 12,7 km/h N 15,1 C 20,7 C 33,0 km/h
30.07.2013 12:00 23,9 C 58 % 1017,3 hPa 0,0 l/m 12,6 km/h N 15,1 C 22,5 C 33,4 km/h
30.07.2013 13:00 24,7 C 55 % 1017,0 hPa 0,0 l/m 13,9 km/h N 15,0 C 23,1 C 35,0 km/h
30.07.2013 14:00 25,3 C 54 % 1016,8 hPa 0,0 l/m 12,3 km/h N 15,2 C 24,1 C 31,0 km/h
30.07.2013 15:00 25,7 C 51 % 1016,4 hPa 0,0 l/m 12,7 km/h N 14,7 C 24,4 C 35,0 km/h
30.07.2013 16:00 25,9 C 50 % 1016,1 hPa 0,0 l/m 10,4 km/h N 14,5 C 25,1 C 29,4 km/h
30.07.2013 17:00 26,1 C 49 % 1016,0 hPa 0,0 l/m 10,1 km/h N 14,6 C 25,4 C 27,8 km/h
30.07.2013 18:00 26,0 C 48 % 1016,2 hPa 0,0 l/m 10,8 km/h N 14,2 C 25,1 C 28,6 km/h
30.07.2013 19:00 24,4 C 52 % 1016,9 hPa 0,0 l/m 11,3 km/h N 13,7 C 23,2 C 27,4 km/h
30.07.2013 20:00 22,5 C 58 % 1017,6 hPa 0,0 l/m 11,8 km/h N 13,9 C 21,0 C 27,4 km/h
30.07.2013 21:00 21,8 C 60 % 1018,0 hPa 0,0 l/m 8,2 km/h N 13,6 C 21,2 C 24,5 km/h
30.07.2013 22:00 21,3 C 60 % 1018,4 hPa 0,0 l/m 6,6 km/h N 13,3 C 21,2 C 22,5 km/h
30.07.2013 23:00 21,5 C 60 % 1018,4 hPa 0,0 l/m 6,0 km/h N 13,4 C 21,4 C 20,5 km/h
31.07.2013 00:00 21,3 C 61 % 1018,3 hPa 0,0 l/m 6,2 km/h N 13,3 C 21,0 C 18,9 km/h
31.07.2013 01:00 21,3 C 59 % 1018,3 hPa 0,0 l/m 6,5 km/h N 13,0 C 21,1 C 18,9 km/h
31.07.2013 02:00 20,6 C 62 % 1018,5 hPa 0,0 l/m 3,1 km/h N 13,0 C 20,6 C 11,7 km/h
31.07.2013 03:00 19,6 C 65 % 1018,4 hPa 0,0 l/m 0,2 km/h N 12,7 C 19,6 C 2,0 km/h
31.07.2013 04:00 19,4 C 66 % 1018,0 hPa 0,0 l/m 2,7 km/h N 12,8 C 19,4 C 10,5 km/h
31.07.2013 05:00 21,2 C 60 % 1017,8 hPa 0,0 l/m 5,3 km/h N 13,1 C 21,2 C 16,5 km/h
31.07.2013 06:00 21,5 C 61 % 1017,8 hPa 0,0 l/m 3,3 km/h N 13,6 C 21,5 C 14,5 km/h
31.07.2013 07:00 21,9 C 61 % 1018,0 hPa 0,0 l/m 6,7 km/h N 14,1 C 21,7 C 22,1 km/h
31.07.2013 08:00 23,1 C 58 % 1018,4 hPa 0,0 l/m 7,3 km/h N 14,5 C 22,8 C 20,5 km/h
31.07.2013 09:00 24,1 C 56 % 1018,0 hPa 0,0 l/m 9,5 km/h N 14,8 C 23,3 C 24,5 km/h
31.07.2013 10:00 24,9 C 54 % 1018,0 hPa 0,0 l/m 9,8 km/h N 15,0 C 24,0 C 24,9 km/h
31.07.2013 11:00 25,7 C 51 % 1017,8 hPa 0,0 l/m 10,8 km/h N 14,9 C 24,8 C 26,1 km/h
31.07.2013 12:00 27,1 C 49 % 1017,4 hPa 0,0 l/m 10,7 km/h N 15,4 C 26,4 C 28,2 km/h
31.07.2013 13:00 26,2 C 52 % 1017,3 hPa 0,0 l/m 12,5 km/h N 15,4 C 25,1 C 31,4 km/h
31.07.2013 14:00 26,4 C 53 % 1017,3 hPa 0,0 l/m 11,6 km/h N 16,0 C 25,5 C 27,0 km/h
31.07.2013 15:00 25,4 C 55 % 1017,4 hPa 0,0 l/m 10,3 km/h N 15,5 C 24,6 C 26,6 km/h
31.07.2013 16:00 27,0 C 50 % 1017,0 hPa 0,0 l/m 10,1 km/h N 15,7 C 26,4 C 27,0 km/h
31.07.2013 17:00 26,9 C 49 % 1016,9 hPa 0,0 l/m 10,5 km/h N 15,3 C 26,2 C 26,6 km/h
31.07.2013 18:00 26,0 C 52 % 1016,9 hPa 0,0 l/m 11,0 km/h N 15,3 C 25,1 C 29,8 km/h
31.07.2013 19:00 25,7 C 53 % 1017,0 hPa 0,0 l/m 8,0 km/h N 15,4 C 25,4 C 22,9 km/h
31.07.2013 20:00 24,4 C 58 % 1017,3 hPa 0,0 l/m 6,9 km/h N 15,5 C 24,1 C 21,3 km/h
31.07.2013 21:00 23,5 C 61 % 1017,7 hPa 0,0 l/m 3,5 km/h N 15,5 C 23,5 C 13,3 km/h
31.07.2013 22:00 22,7 C 64 % 1018,0 hPa 0,0 l/m 1,0 km/h N 15,4 C 22,7 C 6,4 km/h
31.07.2013 23:00 21,7 C 67 % 1018,3 hPa 0,0 l/m 0,6 km/h N 15,4 C 21,7 C 6,4 km/h
01.08.2013 00:00 21,6 C 67 % 1018,5 hPa 0,0 l/m 0,6 km/h N 15,3 C 21,6 C 5,6 km/h
01.08.2013 01:00 20,2 C 71 % 1018,6 hPa 0,0 l/m 0,0 km/h N 14,8 C 20,2 C 0,0 km/h
01.08.2013 02:00 18,1 C 78 % 1019,0 hPa 0,0 l/m 0,0 km/h N 14,1 C 18,1 C 0,4 km/h
01.08.2013 03:00 17,3 C 81 % 1019,0 hPa 0,0 l/m 0,0 km/h N 14,0 C 17,3 C 0,4 km/h
01.08.2013 04:00 17,1 C 82 % 1018,8 hPa 0,0 l/m 0,1 km/h N 14,0 C 17,1 C 2,0 km/h
01.08.2013 05:00 17,5 C 80 % 1018,8 hPa 0,0 l/m 0,0 km/h N 14,1 C 17,5 C 0,0 km/h
01.08.2013 06:00 17,6 C 81 % 1019,1 hPa 0,0 l/m 0,1 km/h N 14,3 C 17,6 C 2,4 km/h
01.08.2013 07:00 19,8 C 76 % 1019,3 hPa 0,0 l/m 2,7 km/h N 15,3 C 19,8 C 10,1 km/h
01.08.2013 08:00 22,6 C 65 % 1019,4 hPa 0,0 l/m 3,7 km/h N 15,6 C 22,6 C 12,9 km/h
01.08.2013 09:00 24,3 C 58 % 1019,4 hPa 0,0 l/m 3,9 km/h N 15,4 C 24,3 C 11,7 km/h
01.08.2013 10:00 25,6 C 55 % 1019,3 hPa 0,0 l/m 3,3 km/h N 15,9 C 25,6 C 11,3 km/h
01.08.2013 11:00 26,6 C 50 % 1019,0 hPa 0,0 l/m 3,6 km/h N 15,2 C 26,6 C 12,1 km/h
01.08.2013 12:00 28,2 C 46 % 1018,5 hPa 0,0 l/m 3,0 km/h N 15,5 C 28,2 C 11,7 km/h
01.08.2013 13:00 28,6 C 45 % 1018,1 hPa 0,0 l/m 3,9 km/h N 15,3 C 28,6 C 14,5 km/h
01.08.2013 14:00 29,4 C 43 % 1017,4 hPa 0,0 l/m 3,3 km/h N 15,3 C 29,4 C 12,1 km/h
01.08.2013 15:00 29,5 C 42 % 1016,9 hPa 0,0 l/m 3,2 km/h N 15,0 C 29,5 C 9,3 km/h
01.08.2013 16:00 29,2 C 42 % 1016,7 hPa 0,0 l/m 2,2 km/h N 14,8 C 29,2 C 9,7 km/h
01.08.2013 17:00 29,4 C 42 % 1016,3 hPa 0,0 l/m 1,7 km/h N 15,2 C 29,4 C 8,0 km/h
01.08.2013 18:00 30,5 C 40 % 1016,1 hPa 0,0 l/m 1,5 km/h N 15,3 C 30,5 C 6,8 km/h
01.08.2013 19:00 30,5 C 41 % 1015,9 hPa 0,0 l/m 0,3 km/h N 15,7 C 30,5 C 2,8 km/h
01.08.2013 20:00 28,3 C 46 % 1016,2 hPa 0,0 l/m 0,1 km/h N 15,5 C 28,3 C 2,0 km/h
01.08.2013 21:00 24,2 C 57 % 1016,8 hPa 0,0 l/m 0,0 km/h N 15,1 C 24,2 C 0,0 km/h
01.08.2013 22:00 21,3 C 67 % 1017,0 hPa 0,0 l/m 0,0 km/h N 14,9 C 21,3 C 0,0 km/h
01.08.2013 23:00 19,8 C 72 % 1017,1 hPa 0,0 l/m 0,0 km/h N 14,5 C 19,8 C 0,0 km/h
02.08.2013 00:00 18,6 C 75 % 1017,0 hPa 0,0 l/m 0,0 km/h N 14,0 C 18,6 C 0,0 km/h
02.08.2013 01:00 17,8 C 77 % 1017,0 hPa 0,0 l/m 0,0 km/h N 13,7 C 17,8 C 0,0 km/h
02.08.2013 02:00 17,1 C 80 % 1016,8 hPa 0,0 l/m 0,0 km/h N 13,5 C 17,1 C 0,0 km/h
02.08.2013 03:00 16,4 C 82 % 1016,5 hPa 0,0 l/m 0,0 km/h N 13,3 C 16,4 C 0,0 km/h
02.08.2013 04:00 15,8 C 82 % 1016,2 hPa 0,0 l/m 0,0 km/h N 12,7 C 15,8 C 0,0 km/h
02.08.2013 05:00 15,1 C 83 % 1016,3 hPa 0,0 l/m 0,0 km/h N 12,1 C 15,1 C 0,0 km/h
02.08.2013 06:00 15,0 C 81 % 1016,6 hPa 0,0 l/m 0,0 km/h N 11,8 C 15,0 C 0,0 km/h
02.08.2013 07:00 16,7 C 79 % 1016,7 hPa 0,0 l/m 0,1 km/h N 12,9 C 16,7 C 1,2 km/h
02.08.2013 08:00 20,8 C 76 % 1016,9 hPa 0,0 l/m 0,2 km/h N 16,4 C 20,8 C 2,4 km/h
02.08.2013 09:00 25,3 C 58 % 1016,8 hPa 0,0 l/m 0,9 km/h N 16,4 C 25,3 C 6,4 km/h
02.08.2013 10:00 28,1 C 51 % 1016,7 hPa 0,0 l/m 1,3 km/h N 16,8 C 28,1 C 6,4 km/h
02.08.2013 11:00 30,3 C 46 % 1016,5 hPa 0,0 l/m 2,1 km/h N 17,2 C 30,3 C 10,1 km/h
02.08.2013 12:00 32,4 C 43 % 1016,0 hPa 0,0 l/m 2,1 km/h N 18,0 C 32,4 C 11,7 km/h
02.08.2013 13:00 34,0 C 41 % 1015,5 hPa 0,0 l/m 2,2 km/h N 18,7 C 34,0 C 10,5 km/h
02.08.2013 14:00 34,7 C 37 % 1014,8 hPa 0,0 l/m 2,5 km/h N 17,6 C 34,7 C 10,1 km/h
02.08.2013 15:00 34,4 C 35 % 1014,4 hPa 0,0 l/m 2,1 km/h N 16,5 C 34,4 C 13,7 km/h
02.08.2013 16:00 33,7 C 36 % 1014,1 hPa 0,0 l/m 1,9 km/h N 16,4 C 33,7 C 10,1 km/h
02.08.2013 17:00 33,7 C 37 % 1013,7 hPa 0,0 l/m 1,5 km/h N 16,7 C 33,7 C 10,9 km/h
02.08.2013 18:00 34,3 C 35 % 1013,4 hPa 0,0 l/m 1,8 km/h N 16,3 C 34,3 C 8,9 km/h
02.08.2013 19:00 34,0 C 36 % 1013,3 hPa 0,0 l/m 0,7 km/h N 16,9 C 34,0 C 5,2 km/h
02.08.2013 20:00 31,3 C 43 % 1013,4 hPa 0,0 l/m 0,0 km/h N 17,1 C 31,3 C 0,0 km/h
02.08.2013 21:00 26,5 C 56 % 1013,6 hPa 0,0 l/m 0,0 km/h N 16,9 C 26,5 C 0,0 km/h
02.08.2013 22:00 23,8 C 65 % 1013,7 hPa 0,0 l/m 0,0 km/h N 16,8 C 23,8 C 0,4 km/h
02.08.2013 23:00 22,0 C 70 % 1013,7 hPa 0,0 l/m 0,0 km/h N 16,2 C 22,0 C 0,0 km/h
03.08.2013 00:00 21,0 C 74 % 1013,7 hPa 0,0 l/m 0,0 km/h N 16,2 C 21,0 C 0,0 km/h
03.08.2013 01:00 20,3 C 76 % 1013,8 hPa 0,0 l/m 0,0 km/h N 15,9 C 20,3 C 0,0 km/h
03.08.2013 02:00 19,5 C 79 % 1013,7 hPa 0,0 l/m 0,0 km/h N 15,7 C 19,5 C 0,0 km/h
03.08.2013 03:00 19,1 C 80 % 1013,5 hPa 0,0 l/m 0,0 km/h N 15,5 C 19,1 C 0,4 km/h
03.08.2013 04:00 19,1 C 79 % 1013,5 hPa 0,0 l/m 0,2 km/h N 15,5 C 19,1 C 4,0 km/h
03.08.2013 05:00 19,1 C 78 % 1013,8 hPa 0,0 l/m 0,2 km/h N 15,2 C 19,1 C 2,8 km/h
03.08.2013 06:00 18,4 C 81 % 1014,3 hPa 0,0 l/m 0,0 km/h N 15,0 C 18,4 C 0,0 km/h
03.08.2013 07:00 19,4 C 82 % 1014,5 hPa 0,0 l/m 0,0 km/h N 16,1 C 19,4 C 0,0 km/h
03.08.2013 08:00 23,9 C 70 % 1014,7 hPa 0,0 l/m 0,0 km/h N 17,9 C 23,9 C 1,6 km/h
03.08.2013 09:00 29,4 C 55 % 1014,6 hPa 0,0 l/m 0,1 km/h N 19,2 C 29,4 C 2,0 km/h
03.08.2013 10:00 31,5 C 47 % 1014,8 hPa 0,0 l/m 0,8 km/h N 18,6 C 31,5 C 5,6 km/h
03.08.2013 11:00 33,5 C 44 % 1015,0 hPa 0,0 l/m 0,9 km/h N 19,3 C 33,5 C 6,0 km/h
03.08.2013 12:00 35,1 C 40 % 1014,7 hPa 0,0 l/m 1,0 km/h N 19,4 C 35,1 C 6,8 km/h
03.08.2013 13:00 36,6 C 36 % 1014,4 hPa 0,0 l/m 1,5 km/h N 19,0 C 36,6 C 8,0 km/h
03.08.2013 14:00 36,8 C 33 % 1014,2 hPa 0,0 l/m 3,0 km/h N 17,5 C 36,8 C 11,3 km/h
03.08.2013 15:00 36,3 C 26 % 1014,1 hPa 0,0 l/m 3,1 km/h N 13,7 C 36,3 C 13,3 km/h
03.08.2013 16:00 36,1 C 26 % 1013,8 hPa 0,0 l/m 3,7 km/h N 13,5 C 36,1 C 15,3 km/h
03.08.2013 17:00 35,9 C 30 % 1013,5 hPa 0,0 l/m 2,8 km/h N 15,7 C 35,9 C 13,3 km/h
03.08.2013 18:00 36,2 C 30 % 1013,3 hPa 0,0 l/m 2,5 km/h N 15,7 C 36,2 C 12,1 km/h
03.08.2013 19:00 35,6 C 34 % 1013,3 hPa 0,0 l/m 0,1 km/h N 17,1 C 35,6 C 2,0 km/h
03.08.2013 20:00 31,7 C 43 % 1013,5 hPa 0,0 l/m 0,0 km/h N 17,3 C 31,7 C 0,4 km/h
03.08.2013 21:00 27,2 C 53 % 1014,1 hPa 0,0 l/m 0,0 km/h N 16,7 C 27,2 C 1,6 km/h
03.08.2013 22:00 25,5 C 56 % 1014,5 hPa 0,0 l/m 0,2 km/h N 16,0 C 25,5 C 4,4 km/h
03.08.2013 23:00 25,5 C 58 % 1015,0 hPa 0,0 l/m 0,2 km/h N 16,4 C 25,5 C 2,8 km/h
04.08.2013 00:00 24,1 C 60 % 1015,2 hPa 0,0 l/m 0,0 km/h N 15,8 C 24,1 C 0,8 km/h
04.08.2013 01:00 22,7 C 63 % 1015,4 hPa 0,0 l/m 0,0 km/h N 15,3 C 22,7 C 0,8 km/h
04.08.2013 02:00 21,9 C 65 % 1015,8 hPa 0,0 l/m 0,2 km/h N 15,0 C 21,9 C 3,2 km/h
04.08.2013 03:00 24,4 C 58 % 1016,4 hPa 0,0 l/m 4,4 km/h N 15,5 C 24,3 C 21,7 km/h
04.08.2013 04:00 26,7 C 53 % 1016,2 hPa 0,0 l/m 5,4 km/h N 16,3 C 26,7 C 24,9 km/h
04.08.2013 05:00 26,4 C 53 % 1015,9 hPa 0,0 l/m 3,0 km/h N 15,9 C 26,4 C 18,9 km/h
04.08.2013 06:00 25,6 C 56 % 1016,2 hPa 0,0 l/m 2,6 km/h N 16,3 C 25,6 C 11,3 km/h
04.08.2013 07:00 26,5 C 57 % 1017,1 hPa 0,0 l/m 4,2 km/h N 17,2 C 26,5 C 16,5 km/h
04.08.2013 08:00 27,4 C 55 % 1017,6 hPa 0,0 l/m 6,1 km/h N 17,6 C 27,4 C 21,3 km/h
04.08.2013 09:00 27,5 C 58 % 1018,2 hPa 0,0 l/m 7,2 km/h N 18,3 C 27,3 C 20,1 km/h
04.08.2013 10:00 28,8 C 57 % 1018,4 hPa 0,0 l/m 6,4 km/h N 19,2 C 28,8 C 17,3 km/h
04.08.2013 11:00 29,9 C 52 % 1018,2 hPa 0,0 l/m 4,3 km/h N 19,0 C 29,9 C 16,1 km/h
04.08.2013 12:00 31,5 C 49 % 1017,5 hPa 0,0 l/m 2,1 km/h N 19,4 C 31,5 C 9,7 km/h
04.08.2013 13:00 33,2 C 44 % 1016,9 hPa 0,0 l/m 2,0 km/h N 19,2 C 33,2 C 8,8 km/h
04.08.2013 14:00 34,7 C 40 % 1016,5 hPa 0,0 l/m 2,2 km/h N 19,0 C 34,7 C 9,3 km/h
04.08.2013 15:00 33,8 C 41 % 1016,0 hPa 0,0 l/m 1,1 km/h N 18,6 C 33,8 C 6,8 km/h
04.08.2013 16:00 31,8 C 47 % 1015,4 hPa 0,0 l/m 0,4 km/h N 19,1 C 31,8 C 2,8 km/h
04.08.2013 17:00 30,9 C 45 % 1015,3 hPa 0,0 l/m 0,8 km/h N 17,5 C 30,9 C 6,8 km/h
04.08.2013 18:00 31,5 C 42 % 1015,0 hPa 0,0 l/m 0,6 km/h N 17,0 C 31,5 C 4,8 km/h
04.08.2013 19:00 29,5 C 50 % 1014,0 hPa 0,0 l/m 3,5 km/h N 18,0 C 29,5 C 13,3 km/h
04.08.2013 20:00 28,0 C 50 % 1016,2 hPa 0,0 l/m 3,4 km/h N 16,6 C 28,0 C 16,9 km/h
04.08.2013 21:00 23,3 C 74 % 1020,4 hPa 0,3 l/m 16,0 km/h N 18,2 C 21,3 C 39,4 km/h
04.08.2013 22:00 21,1 C 81 % 1020,8 hPa 0,3 l/m 2,7 km/h N 17,6 C 21,0 C 15,3 km/h
04.08.2013 23:00 20,8 C 80 % 1019,8 hPa 0,0 l/m 1,8 km/h N 17,1 C 20,8 C 8,1 km/h
Min-Datum _ 02.08.13 03.08.13 29.07.13 - 29.07.13 - 03.08.13 02.08.13 29.07.13
_ Min-Zeit 05:30 16:00 18:45 - 01:00 - 16:00 05:30 01:15
Minimum _ 14,9 C 23 % 1005,8 hPa - 0,0 km/h - 11,6 C 14,9 C 0,0 km/h
Max-Datum _ 03.08.13 02.08.13 04.08.13 04.08.13 04.08.13 - 29.07.13 03.08.13 30.07.13
_ Max-Zeit 14:00 04:30 22:00 21:15 21:00 - 00:00 14:15 01:30
Maximum _ 37,2 C 83 % 1021,1 hPa 0,3 l/m 21,8 km/h
N
- 20,9 C 37,2 C 51,5 km/h
N
Durchschnitt _ 25,5 C 58 % 1015,4 hPa #0,5 l/m 4,4 km/h N 16,1 C 25,2 C 13,9 km/h